createdAt,value
2018-01-24T00:01:01.967Z,924.13
2018-01-24T00:02:33.822Z,924.16
2018-01-24T00:04:05.656Z,924.26
2018-01-24T00:05:37.417Z,924.29
2018-01-24T00:07:09.338Z,924.32
2018-01-24T00:08:41.079Z,924.36
2018-01-24T00:10:12.871Z,924.43
2018-01-24T00:11:44.752Z,924.47
2018-01-24T00:13:17.378Z,924.55
2018-01-24T00:14:48.454Z,924.60
2018-01-24T00:16:20.145Z,924.70
2018-01-24T00:17:51.978Z,924.71
2018-01-24T00:19:23.784Z,924.73
2018-01-24T00:20:55.605Z,924.77
2018-01-24T00:22:27.426Z,924.76
2018-01-24T00:23:59.256Z,924.77
2018-01-24T00:25:31.248Z,924.78
2018-01-24T00:27:02.879Z,924.77
2018-01-24T00:28:35.394Z,924.83
2018-01-24T00:30:06.529Z,924.87
2018-01-24T00:31:38.372Z,924.85
2018-01-24T00:33:10.155Z,924.89
2018-01-24T00:34:42.042Z,924.85
2018-01-24T00:36:13.807Z,924.84
2018-01-24T00:37:45.626Z,924.80
2018-01-24T00:39:17.429Z,924.83
2018-01-24T00:40:49.271Z,924.91
2018-01-24T00:42:21.066Z,924.93
2018-01-24T00:43:52.988Z,924.95
2018-01-24T00:45:24.704Z,924.89
2018-01-24T00:46:56.615Z,924.88
2018-01-24T00:48:28.638Z,924.84
2018-01-24T00:50:00.169Z,924.86
2018-01-24T00:51:31.980Z,924.83
2018-01-24T00:53:03.800Z,924.83
2018-01-24T00:54:35.630Z,924.80
2018-01-24T00:56:07.714Z,924.73
2018-01-24T00:57:39.256Z,924.68
2018-01-24T00:59:11.077Z,924.55
2018-01-24T01:00:42.943Z,924.50
2018-01-24T01:02:14.812Z,924.55
2018-01-24T01:03:46.669Z,924.52
2018-01-24T01:05:18.372Z,924.53
2018-01-24T01:06:50.174Z,924.51
2018-01-24T01:08:22.187Z,924.59
2018-01-24T01:09:54.219Z,924.39
2018-01-24T01:11:25.624Z,924.48
2018-01-24T01:12:57.478Z,924.50
2018-01-24T01:14:29.262Z,924.53
2018-01-24T01:16:01.118Z,924.52
2018-01-24T01:17:32.952Z,924.36
2018-01-24T01:19:04.755Z,924.42
2018-01-24T01:20:36.731Z,924.41
2018-01-24T01:22:08.417Z,924.37
2018-01-24T01:23:40.174Z,924.39
2018-01-24T01:25:12.010Z,924.34
2018-01-24T01:26:44.061Z,924.41
2018-01-24T01:28:15.634Z,924.40
2018-01-24T01:29:48.281Z,924.41
2018-01-24T01:31:19.268Z,924.42
2018-01-24T01:32:51.100Z,924.37
2018-01-24T01:34:22.903Z,924.37
2018-01-24T01:35:54.720Z,924.40
2018-01-24T01:37:26.539Z,924.34
2018-01-24T01:38:58.457Z,924.28
2018-01-24T01:40:30.175Z,924.32
2018-01-24T01:42:01.994Z,924.31
2018-01-24T01:43:33.812Z,924.34
2018-01-24T01:45:05.781Z,924.40
2018-01-24T01:46:37.450Z,924.42
2018-01-24T01:48:09.268Z,924.45
2018-01-24T01:49:41.087Z,924.47
2018-01-24T01:51:12.906Z,924.46
2018-01-24T01:52:44.724Z,924.46
2018-01-24T01:54:16.543Z,924.46
2018-01-24T01:55:48.362Z,924.38
2018-01-24T01:57:20.532Z,924.37
2018-01-24T01:58:52.000Z,924.41
2018-01-24T02:00:23.818Z,924.37
2018-01-24T02:01:55.637Z,924.43
2018-01-24T02:03:27.458Z,924.42
2018-01-24T02:04:59.275Z,924.46
2018-01-24T02:06:31.094Z,924.46
2018-01-24T02:08:02.913Z,924.44
2018-01-24T02:09:34.731Z,924.43
2018-01-24T02:11:06.550Z,924.43
2018-01-24T02:12:38.368Z,924.46
2018-01-24T02:14:10.187Z,924.43
2018-01-24T02:15:42.155Z,924.46
2018-01-24T02:17:13.823Z,924.53
2018-01-24T02:18:45.641Z,924.48
2018-01-24T02:20:17.460Z,924.47
2018-01-24T02:21:49.279Z,924.52
2018-01-24T02:23:21.096Z,924.51
2018-01-24T02:24:52.914Z,924.46
2018-01-24T02:26:24.732Z,924.52
2018-01-24T02:27:56.801Z,924.53
2018-01-24T02:29:28.368Z,924.53
2018-01-24T02:31:00.188Z,924.58
2018-01-24T02:32:32.010Z,924.61
2018-01-24T02:34:04.025Z,924.62
2018-01-24T02:35:35.642Z,924.69
2018-01-24T02:37:07.462Z,924.67
2018-01-24T02:38:39.279Z,924.70
2018-01-24T02:40:11.098Z,924.74
2018-01-24T02:41:42.917Z,924.75
2018-01-24T02:43:14.735Z,924.73
2018-01-24T02:44:46.553Z,924.77
2018-01-24T02:46:18.523Z,924.78
2018-01-24T02:47:50.191Z,924.78
2018-01-24T02:49:22.009Z,924.73
2018-01-24T02:50:53.828Z,924.72
2018-01-24T02:52:25.750Z,924.66
2018-01-24T02:53:57.465Z,924.64
2018-01-24T02:55:29.285Z,924.61
2018-01-24T02:57:01.102Z,924.60
2018-01-24T02:58:33.021Z,924.61
2018-01-24T03:00:04.739Z,924.64
2018-01-24T03:01:36.557Z,924.67
2018-01-24T03:03:08.377Z,924.77
2018-01-24T03:04:40.196Z,924.79
2018-01-24T03:06:12.016Z,924.81
2018-01-24T03:07:43.832Z,924.84
2018-01-24T03:09:15.651Z,924.94
2018-01-24T03:10:47.769Z,924.95
2018-01-24T03:12:19.287Z,925.02
2018-01-24T03:13:51.105Z,925.04
2018-01-24T03:15:22.923Z,925.08
2018-01-24T03:16:54.740Z,925.16
2018-01-24T03:18:26.577Z,925.22
2018-01-24T03:19:58.376Z,925.23
2018-01-24T03:21:30.194Z,925.18
2018-01-24T03:23:02.162Z,925.21
2018-01-24T03:24:33.830Z,925.16
2018-01-24T03:26:05.650Z,925.19
2018-01-24T03:27:37.466Z,925.28
2018-01-24T03:29:09.384Z,925.36
2018-01-24T03:30:41.102Z,925.35
2018-01-24T03:32:12.919Z,925.37
2018-01-24T03:33:44.737Z,925.36
2018-01-24T03:35:16.555Z,925.41
2018-01-24T03:36:48.376Z,925.41
2018-01-24T03:38:20.191Z,925.48
2018-01-24T03:39:52.009Z,925.47
2018-01-24T03:41:23.827Z,925.46
2018-01-24T03:42:55.649Z,925.46
2018-01-24T03:44:27.462Z,925.51
2018-01-24T03:45:59.280Z,925.59
2018-01-24T03:47:31.201Z,925.58
2018-01-24T03:49:02.916Z,925.53
2018-01-24T03:50:34.733Z,925.54
2018-01-24T03:52:06.551Z,925.55
2018-01-24T03:53:38.369Z,925.66
2018-01-24T03:55:10.186Z,925.63
2018-01-24T03:56:42.004Z,925.63
2018-01-24T03:58:13.821Z,925.60
2018-01-24T03:59:45.739Z,925.67
2018-01-24T04:01:17.456Z,925.54
2018-01-24T04:02:49.273Z,925.55
2018-01-24T04:04:21.091Z,925.67
2018-01-24T04:05:53.259Z,925.60
2018-01-24T04:07:24.726Z,925.55
2018-01-24T04:08:56.545Z,925.66
2018-01-24T04:10:28.367Z,925.67
2018-01-24T04:12:00.178Z,925.73
2018-01-24T04:13:31.995Z,925.63
2018-01-24T04:15:03.812Z,925.61
2018-01-24T04:16:35.630Z,925.69
2018-01-24T04:18:07.447Z,925.66
2018-01-24T04:19:39.264Z,925.67
2018-01-24T04:21:11.082Z,925.63
2018-01-24T04:22:42.899Z,925.65
2018-01-24T04:24:14.819Z,925.64
2018-01-24T04:25:46.533Z,925.69
2018-01-24T04:27:18.350Z,925.65
2018-01-24T04:28:50.167Z,925.64
2018-01-24T04:30:22.235Z,925.62
2018-01-24T04:31:53.802Z,925.66
2018-01-24T04:33:25.627Z,925.69
2018-01-24T04:34:57.436Z,925.67
2018-01-24T04:36:29.253Z,925.64
2018-01-24T04:38:01.071Z,925.60
2018-01-24T04:39:32.889Z,925.68
2018-01-24T04:41:04.707Z,925.72
2018-01-24T04:42:36.724Z,925.64
2018-01-24T04:44:08.340Z,925.62
2018-01-24T04:45:40.157Z,925.66
2018-01-24T04:47:11.975Z,925.60
2018-01-24T04:48:43.942Z,925.62
2018-01-24T04:50:15.609Z,925.63
2018-01-24T04:51:47.426Z,925.61
2018-01-24T04:53:19.245Z,925.55
2018-01-24T04:54:51.062Z,925.63
2018-01-24T04:56:22.878Z,925.65
2018-01-24T04:57:54.699Z,925.67
2018-01-24T04:59:26.513Z,925.68
2018-01-24T05:00:58.581Z,925.69
2018-01-24T05:02:30.188Z,925.77
2018-01-24T05:04:01.966Z,925.78
2018-01-24T05:05:33.782Z,925.77
2018-01-24T05:07:05.600Z,925.78
2018-01-24T05:08:37.418Z,925.82
2018-01-24T05:10:09.235Z,925.73
2018-01-24T05:11:41.053Z,925.73
2018-01-24T05:13:13.022Z,925.65
2018-01-24T05:14:44.688Z,925.55
2018-01-24T05:16:16.506Z,925.45
2018-01-24T05:17:48.324Z,925.37
2018-01-24T05:19:20.242Z,925.39
2018-01-24T05:20:51.963Z,925.38
2018-01-24T05:22:23.776Z,925.37
2018-01-24T05:23:55.595Z,925.33
2018-01-24T05:25:27.412Z,925.36
2018-01-24T05:26:59.229Z,925.25
2018-01-24T05:28:31.047Z,925.21
2018-01-24T05:30:02.890Z,925.19
2018-01-24T05:31:34.782Z,925.17
2018-01-24T05:33:06.499Z,925.13
2018-01-24T05:34:38.316Z,925.14
2018-01-24T05:36:10.134Z,925.19
2018-01-24T05:37:42.051Z,925.16
2018-01-24T05:39:13.768Z,925.12
2018-01-24T05:40:45.585Z,925.04
2018-01-24T05:42:17.402Z,925.01
2018-01-24T05:43:49.369Z,924.95
2018-01-24T05:45:21.036Z,924.93
2018-01-24T05:46:52.853Z,924.92
2018-01-24T05:48:24.670Z,924.92
2018-01-24T05:49:56.487Z,924.86
2018-01-24T05:51:28.304Z,924.80
2018-01-24T05:53:00.120Z,924.82
2018-01-24T05:54:31.937Z,924.77
2018-01-24T05:56:03.855Z,924.74
2018-01-24T05:57:35.570Z,924.68
2018-01-24T05:59:07.387Z,924.68
2018-01-24T06:00:39.204Z,924.64
2018-01-24T06:02:11.271Z,924.63
2018-01-24T06:03:42.836Z,924.62
2018-01-24T06:05:14.654Z,924.59
2018-01-24T06:06:46.477Z,924.50
2018-01-24T06:08:18.286Z,924.48
2018-01-24T06:09:50.103Z,924.44
2018-01-24T06:11:21.920Z,924.40
2018-01-24T06:12:53.736Z,924.29
2018-01-24T06:14:25.664Z,924.33
2018-01-24T06:15:57.375Z,924.28
2018-01-24T06:17:29.186Z,924.26
2018-01-24T06:19:01.011Z,924.23
2018-01-24T06:20:32.968Z,924.18
2018-01-24T06:22:04.634Z,924.14
2018-01-24T06:23:36.450Z,924.09
2018-01-24T06:25:08.267Z,924.11
2018-01-24T06:26:40.234Z,924.04
2018-01-24T06:28:11.901Z,924.03
2018-01-24T06:29:43.716Z,924.00
2018-01-24T06:31:15.533Z,924.00
2018-01-24T06:32:48.151Z,923.95
2018-01-24T06:34:19.166Z,923.96
2018-01-24T06:35:50.983Z,923.90
2018-01-24T06:37:22.802Z,923.91
2018-01-24T06:38:54.617Z,923.88
2018-01-24T06:40:26.432Z,923.88
2018-01-24T06:41:58.249Z,923.87
2018-01-24T06:43:30.068Z,923.90
2018-01-24T06:45:02.033Z,923.91
2018-01-24T06:46:33.700Z,923.92
2018-01-24T06:48:05.521Z,923.93
2018-01-24T06:49:37.331Z,923.94
2018-01-24T06:51:09.248Z,923.94
2018-01-24T06:52:40.964Z,923.95
2018-01-24T06:54:12.781Z,923.93
2018-01-24T06:55:44.597Z,923.91
2018-01-24T06:57:16.414Z,923.90
2018-01-24T06:58:48.231Z,923.94
2018-01-24T07:00:20.047Z,923.97
2018-01-24T07:01:51.864Z,923.90
2018-01-24T07:03:23.681Z,923.92
2018-01-24T07:04:55.499Z,923.91
2018-01-24T07:06:27.313Z,923.93
2018-01-24T07:07:59.130Z,923.92
2018-01-24T07:09:31.047Z,923.99
2018-01-24T07:11:02.763Z,923.96
2018-01-24T07:12:34.579Z,923.90
2018-01-24T07:14:06.395Z,923.95
2018-01-24T07:15:38.212Z,923.91
2018-01-24T07:17:10.030Z,923.97
2018-01-24T07:18:41.959Z,924.00
2018-01-24T07:20:13.660Z,924.04
2018-01-24T07:21:45.477Z,924.05
2018-01-24T07:23:17.292Z,924.13
2018-01-24T07:24:49.109Z,924.13
2018-01-24T07:26:20.928Z,924.15
2018-01-24T07:27:52.992Z,924.19
2018-01-24T07:29:24.558Z,924.20
2018-01-24T07:30:56.374Z,924.24
2018-01-24T07:32:28.191Z,924.24
2018-01-24T07:34:00.258Z,924.22
2018-01-24T07:35:31.824Z,924.25
2018-01-24T07:37:03.641Z,924.30
2018-01-24T07:38:35.457Z,924.35
2018-01-24T07:40:07.273Z,924.30
2018-01-24T07:41:39.090Z,924.36
2018-01-24T07:43:10.906Z,924.31
2018-01-24T07:44:42.766Z,924.34
2018-01-24T07:46:15.391Z,924.34
2018-01-24T07:47:46.356Z,924.31
2018-01-24T07:49:18.173Z,924.34
2018-01-24T07:50:49.989Z,924.35
2018-01-24T07:52:21.956Z,924.31
2018-01-24T07:53:53.622Z,924.31
2018-01-24T07:55:25.439Z,924.38
2018-01-24T07:56:57.255Z,924.36
2018-01-24T07:58:29.072Z,924.36
2018-01-24T08:00:00.889Z,924.33
2018-01-24T08:01:32.705Z,924.30
2018-01-24T08:03:04.525Z,924.29
2018-01-24T08:04:36.690Z,924.31
2018-01-24T08:06:08.157Z,924.29
2018-01-24T08:07:39.974Z,924.31
2018-01-24T08:09:11.791Z,924.30
2018-01-24T08:10:43.607Z,924.32
2018-01-24T08:12:15.425Z,924.32
2018-01-24T08:13:47.241Z,924.33
2018-01-24T08:15:19.059Z,924.33
2018-01-24T08:16:51.025Z,924.31
2018-01-24T08:18:22.692Z,924.34
2018-01-24T08:19:54.508Z,924.29
2018-01-24T08:21:26.370Z,924.31
2018-01-24T08:22:58.243Z,924.30
2018-01-24T08:24:29.959Z,924.30
2018-01-24T08:26:01.776Z,924.28
2018-01-24T08:27:33.593Z,924.27
2018-01-24T08:29:05.410Z,924.23
2018-01-24T08:30:37.272Z,924.25
2018-01-24T08:32:09.043Z,924.23
2018-01-24T08:33:40.860Z,924.18
2018-01-24T08:35:12.777Z,924.24
2018-01-24T08:36:44.494Z,924.22
2018-01-24T08:38:16.313Z,924.17
2018-01-24T08:39:48.128Z,924.17
2018-01-24T08:41:20.045Z,924.15
2018-01-24T08:42:51.768Z,924.20
2018-01-24T08:44:23.578Z,924.18
2018-01-24T08:45:55.395Z,924.16
2018-01-24T08:47:27.365Z,924.19
2018-01-24T08:48:59.030Z,924.18
2018-01-24T08:50:30.846Z,924.16
2018-01-24T08:52:02.668Z,924.12
2018-01-24T08:53:34.630Z,924.15
2018-01-24T08:55:06.297Z,924.12
2018-01-24T08:56:38.114Z,924.11
2018-01-24T08:58:09.931Z,924.10
2018-01-24T08:59:41.848Z,924.12
2018-01-24T09:01:13.565Z,924.11
2018-01-24T09:02:45.383Z,924.09
2018-01-24T09:04:17.199Z,924.07
2018-01-24T09:05:49.017Z,924.05
2018-01-24T09:07:20.834Z,924.03
2018-01-24T09:08:52.651Z,924.01
2018-01-24T09:10:24.470Z,923.96
2018-01-24T09:11:56.285Z,923.92
2018-01-24T09:13:28.103Z,923.90
2018-01-24T09:14:59.919Z,923.87
2018-01-24T09:16:31.737Z,923.83
2018-01-24T09:18:03.805Z,923.83
2018-01-24T09:19:35.373Z,923.83
2018-01-24T09:21:07.190Z,923.83
2018-01-24T09:22:39.008Z,923.82
2018-01-24T09:24:10.826Z,923.80
2018-01-24T09:25:42.644Z,923.77
2018-01-24T09:27:14.462Z,923.73
2018-01-24T09:28:46.280Z,923.73
2018-01-24T09:30:18.098Z,923.70
2018-01-24T09:31:49.916Z,923.72
2018-01-24T09:33:21.734Z,923.72
2018-01-24T09:34:53.558Z,923.78
2018-01-24T09:36:26.173Z,923.75
2018-01-24T09:37:57.189Z,923.74
2018-01-24T09:39:29.008Z,923.75
2018-01-24T09:41:00.826Z,923.69
2018-01-24T09:42:32.645Z,923.66
2018-01-24T09:44:04.464Z,923.69
2018-01-24T09:45:36.283Z,923.69
2018-01-24T09:47:08.102Z,923.69
2018-01-24T09:48:40.071Z,923.64
2018-01-24T09:50:11.740Z,923.61
2018-01-24T09:51:43.559Z,923.60
2018-01-24T09:53:15.378Z,923.53
2018-01-24T09:54:47.299Z,923.57
2018-01-24T09:56:19.016Z,923.52
2018-01-24T09:57:50.836Z,923.50
2018-01-24T09:59:22.654Z,923.46
2018-01-24T10:00:54.474Z,923.48
2018-01-24T10:02:26.294Z,923.51
2018-01-24T10:03:58.113Z,923.52
2018-01-24T10:05:29.943Z,923.44
2018-01-24T10:07:01.752Z,923.43
2018-01-24T10:08:33.572Z,923.39
2018-01-24T10:10:05.391Z,923.38
2018-01-24T10:11:37.210Z,923.37
2018-01-24T10:13:09.131Z,923.30
2018-01-24T10:14:40.849Z,923.25
2018-01-24T10:16:12.705Z,923.25
2018-01-24T10:17:44.489Z,923.32
2018-01-24T10:19:16.309Z,923.26
2018-01-24T10:20:48.128Z,923.26
2018-01-24T10:22:19.948Z,923.28
2018-01-24T10:23:51.767Z,923.31
2018-01-24T10:25:23.589Z,923.31
2018-01-24T10:26:55.408Z,923.37
2018-01-24T10:28:27.227Z,923.36
2018-01-24T10:29:59.047Z,923.31
2018-01-24T10:31:30.968Z,923.27
2018-01-24T10:33:03.194Z,923.23
2018-01-24T10:34:34.508Z,923.22
2018-01-24T10:36:06.366Z,923.17
2018-01-24T10:37:38.149Z,923.09
2018-01-24T10:39:09.972Z,923.04
2018-01-24T10:40:41.790Z,922.94
2018-01-24T10:42:13.612Z,922.88
2018-01-24T10:43:45.431Z,922.80
2018-01-24T10:45:17.301Z,922.82
2018-01-24T10:46:49.072Z,922.83
2018-01-24T10:48:20.892Z,922.87
2018-01-24T10:49:52.964Z,922.84
2018-01-24T10:51:24.533Z,922.87
2018-01-24T10:52:56.354Z,922.84
2018-01-24T10:54:28.323Z,922.90
2018-01-24T10:55:59.995Z,922.90
2018-01-24T10:57:31.845Z,922.97
2018-01-24T10:59:03.637Z,922.95
2018-01-24T11:00:35.457Z,922.94
2018-01-24T11:02:07.279Z,922.99
2018-01-24T11:03:39.100Z,922.97
2018-01-24T11:05:10.921Z,923.01
2018-01-24T11:06:42.913Z,923.03
2018-01-24T11:08:14.663Z,923.06
2018-01-24T11:09:46.417Z,923.11
2018-01-24T11:11:18.205Z,923.17
2018-01-24T11:12:50.028Z,923.21
2018-01-24T11:14:21.848Z,923.33
2018-01-24T11:15:53.750Z,923.34
2018-01-24T11:17:25.492Z,923.44
2018-01-24T11:18:57.346Z,923.41
2018-01-24T11:20:29.136Z,923.47
2018-01-24T11:22:00.958Z,923.40
2018-01-24T11:23:32.782Z,923.35
2018-01-24T11:25:04.602Z,923.38
2018-01-24T11:26:36.525Z,923.34
2018-01-24T11:28:08.347Z,923.36
2018-01-24T11:29:40.149Z,923.35
2018-01-24T11:31:11.894Z,923.35
2018-01-24T11:32:43.721Z,923.41
2018-01-24T11:34:15.540Z,923.49
2018-01-24T11:35:47.366Z,923.48
2018-01-24T11:37:19.186Z,923.42
2018-01-24T11:38:51.010Z,923.41
2018-01-24T11:40:22.834Z,923.37
2018-01-24T11:41:54.658Z,923.32
2018-01-24T11:43:26.484Z,923.24
2018-01-24T11:44:58.473Z,923.31
2018-01-24T11:46:30.148Z,923.40
2018-01-24T11:48:01.957Z,923.52
2018-01-24T11:49:33.782Z,923.60
2018-01-24T11:51:05.636Z,923.70
2018-01-24T11:52:37.434Z,923.79
2018-01-24T11:54:09.261Z,923.84
2018-01-24T11:55:41.087Z,923.88
2018-01-24T11:57:12.945Z,923.92
2018-01-24T11:58:44.755Z,923.92
2018-01-24T12:00:16.567Z,923.97
2018-01-24T12:01:48.394Z,923.86
2018-01-24T12:03:20.323Z,923.82
2018-01-24T12:04:52.054Z,923.81
2018-01-24T12:06:23.879Z,923.75
2018-01-24T12:07:55.708Z,923.77
2018-01-24T12:09:27.538Z,923.87
2018-01-24T12:10:59.366Z,923.95
2018-01-24T12:12:31.195Z,923.92
2018-01-24T12:14:03.030Z,923.83
2018-01-24T12:15:34.904Z,923.93
2018-01-24T12:17:06.684Z,923.96
2018-01-24T12:18:38.534Z,923.92
2018-01-24T12:20:10.344Z,923.91
2018-01-24T12:21:42.323Z,923.81
2018-01-24T12:23:14.001Z,923.83
2018-01-24T12:24:45.880Z,923.73
2018-01-24T12:26:17.659Z,923.84
2018-01-24T12:27:49.568Z,923.82
2018-01-24T12:29:21.313Z,923.81
2018-01-24T12:30:53.140Z,923.76
2018-01-24T12:32:24.986Z,923.73
2018-01-24T12:33:56.819Z,923.80
2018-01-24T12:35:28.638Z,923.79
2018-01-24T12:37:00.447Z,923.92
2018-01-24T12:38:32.337Z,924.14
2018-01-24T12:40:04.201Z,924.10
2018-01-24T12:41:35.929Z,924.11
2018-01-24T12:43:07.755Z,924.22
2018-01-24T12:44:39.615Z,924.25
2018-01-24T12:46:11.413Z,924.27
2018-01-24T12:47:43.241Z,924.28
2018-01-24T12:49:15.079Z,924.26
2018-01-24T12:50:47.040Z,924.35
2018-01-24T12:52:18.881Z,924.38
2018-01-24T12:53:50.560Z,924.40
2018-01-24T12:55:22.421Z,924.43
2018-01-24T12:56:54.218Z,924.42
2018-01-24T12:58:26.197Z,924.43
2018-01-24T12:59:57.876Z,924.37
2018-01-24T13:01:30.008Z,924.34
2018-01-24T13:03:01.533Z,924.38
2018-01-24T13:04:33.412Z,924.42
2018-01-24T13:06:05.191Z,924.42
2018-01-24T13:07:37.019Z,924.42
2018-01-24T13:09:08.847Z,924.42
2018-01-24T13:10:40.727Z,924.42
2018-01-24T13:12:12.595Z,924.44
2018-01-24T13:13:44.331Z,924.42
2018-01-24T13:15:16.159Z,924.43
2018-01-24T13:16:48.137Z,924.41
2018-01-24T13:18:19.814Z,924.43
2018-01-24T13:19:51.642Z,924.35
2018-01-24T13:21:23.481Z,924.33
2018-01-24T13:22:55.398Z,924.31
2018-01-24T13:24:27.282Z,924.34
2018-01-24T13:25:58.953Z,924.26
2018-01-24T13:27:30.781Z,924.15
2018-01-24T13:29:02.610Z,924.02
2018-01-24T13:30:34.438Z,923.86
2018-01-24T13:32:06.350Z,923.77
2018-01-24T13:33:38.171Z,923.81
2018-01-24T13:35:10.153Z,923.78
2018-01-24T13:36:41.749Z,923.76
2018-01-24T13:38:13.577Z,923.76
2018-01-24T13:39:45.405Z,923.74
2018-01-24T13:41:17.232Z,923.87
2018-01-24T13:42:49.059Z,923.80
2018-01-24T13:44:20.887Z,923.76
2018-01-24T13:45:52.894Z,923.71
2018-01-24T13:47:24.594Z,923.66
2018-01-24T13:48:56.374Z,923.56
2018-01-24T13:50:28.212Z,923.65
2018-01-24T13:52:00.052Z,923.60
2018-01-24T13:53:32.014Z,923.58
2018-01-24T13:55:03.749Z,923.60
2018-01-24T13:56:36.029Z,923.52
2018-01-24T13:58:07.356Z,923.49
2018-01-24T13:59:39.201Z,923.51
2018-01-24T14:01:11.050Z,923.50
2018-01-24T14:02:42.901Z,923.49
2018-01-24T14:04:14.684Z,923.45
2018-01-24T14:05:46.854Z,923.46
2018-01-24T14:07:18.355Z,923.48
2018-01-24T14:08:50.236Z,923.49
2018-01-24T14:10:22.168Z,923.47
2018-01-24T14:11:53.852Z,923.49
2018-01-24T14:13:25.686Z,923.53
2018-01-24T14:14:57.671Z,923.52
2018-01-24T14:16:29.500Z,923.55
2018-01-24T14:18:01.217Z,923.59
2018-01-24T14:19:33.025Z,923.57
2018-01-24T14:21:04.878Z,923.59
2018-01-24T14:22:36.693Z,923.58
2018-01-24T14:24:08.535Z,923.56
2018-01-24T14:25:41.708Z,923.45
2018-01-24T14:27:13.607Z,923.44
2018-01-24T14:28:44.031Z,923.39
2018-01-24T14:30:15.865Z,923.40
2018-01-24T14:31:47.699Z,923.39
2018-01-24T14:33:19.685Z,923.36
2018-01-24T14:34:51.366Z,923.34
2018-01-24T14:36:23.199Z,923.31
2018-01-24T14:37:55.034Z,923.24
2018-01-24T14:39:26.868Z,923.23
2018-01-24T14:40:58.755Z,923.22
2018-01-24T14:42:30.534Z,923.22
2018-01-24T14:44:02.369Z,923.27
2018-01-24T14:45:34.454Z,923.25
2018-01-24T14:47:06.038Z,923.25
2018-01-24T14:48:37.872Z,923.25
2018-01-24T14:50:09.705Z,923.23
2018-01-24T14:51:41.695Z,923.22
2018-01-24T14:53:13.374Z,923.20
2018-01-24T14:54:45.208Z,923.24
2018-01-24T14:56:17.074Z,923.27
2018-01-24T14:57:48.875Z,923.23
2018-01-24T14:59:20.709Z,923.26
2018-01-24T15:00:52.543Z,923.24
2018-01-24T15:02:24.477Z,923.26
2018-01-24T15:03:56.214Z,923.23
2018-01-24T15:05:28.050Z,923.23
2018-01-24T15:06:59.884Z,923.29
2018-01-24T15:08:31.720Z,923.23
2018-01-24T15:10:03.659Z,923.18
2018-01-24T15:11:35.507Z,923.21
2018-01-24T15:13:07.232Z,923.18
2018-01-24T15:14:39.071Z,923.21
2018-01-24T15:16:10.902Z,923.25
2018-01-24T15:17:42.738Z,923.16
2018-01-24T15:19:14.575Z,923.23
2018-01-24T15:20:46.412Z,923.17
2018-01-24T15:22:18.248Z,923.16
2018-01-24T15:23:50.084Z,923.17
2018-01-24T15:25:22.012Z,923.23
2018-01-24T15:26:53.758Z,923.20
2018-01-24T15:28:25.696Z,923.17
2018-01-24T15:29:57.433Z,923.20
2018-01-24T15:31:29.271Z,923.19
2018-01-24T15:33:01.108Z,923.13
2018-01-24T15:34:32.946Z,923.16
2018-01-24T15:36:04.815Z,923.16
2018-01-24T15:37:36.623Z,923.17
2018-01-24T15:39:08.459Z,923.17
2018-01-24T15:40:40.297Z,923.16
2018-01-24T15:42:12.134Z,923.08
2018-01-24T15:43:43.975Z,923.11
2018-01-24T15:45:15.819Z,923.17
2018-01-24T15:46:47.823Z,923.16
2018-01-24T15:48:19.485Z,923.19
2018-01-24T15:49:51.323Z,923.34
2018-01-24T15:51:23.160Z,923.35
2018-01-24T15:52:55.084Z,923.23
2018-01-24T15:54:26.836Z,923.13
2018-01-24T15:55:58.673Z,923.04
2018-01-24T15:57:30.512Z,923.02
2018-01-24T15:59:02.350Z,923.04
2018-01-24T16:00:34.179Z,923.05
2018-01-24T16:02:06.015Z,922.86
2018-01-24T16:03:37.867Z,922.87
2018-01-24T16:05:09.788Z,922.99
2018-01-24T16:06:41.523Z,923.08
2018-01-24T16:08:13.399Z,923.24
2018-01-24T16:09:45.208Z,923.23
2018-01-24T16:11:17.033Z,923.33
2018-01-24T16:12:48.869Z,923.47
2018-01-24T16:14:20.705Z,923.53
2018-01-24T16:15:52.542Z,923.42
2018-01-24T16:17:24.377Z,923.37
2018-01-24T16:18:56.245Z,923.15
2018-01-24T16:20:28.053Z,923.05
2018-01-24T16:21:59.891Z,923.15
2018-01-24T16:23:31.832Z,923.02
2018-01-24T16:25:03.569Z,922.89
2018-01-24T16:26:35.405Z,922.82
2018-01-24T16:28:07.242Z,922.73
2018-01-24T16:29:39.080Z,922.80
2018-01-24T16:31:10.935Z,922.85
2018-01-24T16:32:42.755Z,922.83
2018-01-24T16:34:14.606Z,922.73
2018-01-24T16:35:46.565Z,922.44
2018-01-24T16:37:18.277Z,922.43
2018-01-24T16:38:53.141Z,922.37
2018-01-24T16:40:21.945Z,922.42
2018-01-24T16:41:53.931Z,922.47
2018-01-24T16:43:25.629Z,922.53
2018-01-24T16:44:57.478Z,922.63
2018-01-24T16:46:29.302Z,922.60
2018-01-24T16:48:01.110Z,922.59
2018-01-24T16:49:32.944Z,922.42
2018-01-24T16:51:04.771Z,922.53
2018-01-24T16:52:36.601Z,922.45
2018-01-24T16:54:08.471Z,922.51
2018-01-24T16:55:40.261Z,922.45
2018-01-24T16:57:12.093Z,922.51
2018-01-24T16:58:43.925Z,922.71
2018-01-24T17:00:15.856Z,922.65
2018-01-24T17:01:47.590Z,922.44
2018-01-24T17:03:19.424Z,922.46
2018-01-24T17:04:51.259Z,922.50
2018-01-24T17:06:23.091Z,922.32
2018-01-24T17:07:54.957Z,922.51
2018-01-24T17:09:26.757Z,922.25
2018-01-24T17:10:58.590Z,922.29
2018-01-24T17:12:30.484Z,922.25
2018-01-24T17:14:02.253Z,922.40
2018-01-24T17:15:34.085Z,922.05
2018-01-24T17:17:05.967Z,922.26
2018-01-24T17:18:37.949Z,922.20
2018-01-24T17:20:09.581Z,922.16
2018-01-24T17:21:41.414Z,922.10
2018-01-24T17:23:13.253Z,922.08
2018-01-24T17:24:45.084Z,922.07
2018-01-24T17:26:16.910Z,922.00
2018-01-24T17:27:48.856Z,921.97
2018-01-24T17:29:20.577Z,922.00
2018-01-24T17:30:52.411Z,921.64
2018-01-24T17:32:24.349Z,921.68
2018-01-24T17:33:56.086Z,921.94
2018-01-24T17:35:28.156Z,921.94
2018-01-24T17:36:59.895Z,922.00
2018-01-24T17:38:31.758Z,922.07
2018-01-24T17:40:03.412Z,922.17
2018-01-24T17:41:35.246Z,922.27
2018-01-24T17:43:07.231Z,922.69
2018-01-24T17:44:38.988Z,922.78
2018-01-24T17:46:10.957Z,922.59
2018-01-24T17:47:42.652Z,922.42
2018-01-24T17:49:14.485Z,922.22
2018-01-24T17:50:46.250Z,922.15
2018-01-24T17:52:18.082Z,922.18
2018-01-24T17:53:49.913Z,922.12
2018-01-24T17:55:21.843Z,922.08
2018-01-24T17:56:53.603Z,922.01
2018-01-24T17:58:25.402Z,922.04
2018-01-24T17:59:57.231Z,921.97
2018-01-24T18:01:29.138Z,922.01
2018-01-24T18:03:00.889Z,922.01
2018-01-24T18:04:32.716Z,922.04
2018-01-24T18:06:04.545Z,921.94
2018-01-24T18:07:36.431Z,922.01
2018-01-24T18:09:08.203Z,922.14
2018-01-24T18:10:40.031Z,922.07
2018-01-24T18:12:11.858Z,922.09
2018-01-24T18:13:43.836Z,922.21
2018-01-24T18:15:15.550Z,922.22
2018-01-24T18:16:47.341Z,922.20
2018-01-24T18:18:19.304Z,922.25
2018-01-24T18:19:50.999Z,922.06
2018-01-24T18:21:22.822Z,921.99
2018-01-24T18:22:54.648Z,921.96
2018-01-24T18:24:26.475Z,922.08
2018-01-24T18:25:58.350Z,922.24
2018-01-24T18:27:30.127Z,922.21
2018-01-24T18:29:01.953Z,922.17
2018-01-24T18:30:33.790Z,921.99
2018-01-24T18:32:05.706Z,921.94
2018-01-24T18:33:37.457Z,921.90
2018-01-24T18:35:09.257Z,921.89
2018-01-24T18:36:41.091Z,921.83
2018-01-24T18:38:12.932Z,921.86
2018-01-24T18:39:44.768Z,921.92
2018-01-24T18:41:16.558Z,921.95
2018-01-24T18:42:48.384Z,921.95
2018-01-24T18:44:20.359Z,922.01
2018-01-24T18:45:52.034Z,921.93
2018-01-24T18:47:23.878Z,922.01
2018-01-24T18:48:55.684Z,922.27
2018-01-24T18:50:27.659Z,922.21
2018-01-24T18:51:59.335Z,922.17
2018-01-24T18:53:31.159Z,922.20
2018-01-24T18:55:02.984Z,922.16
2018-01-24T18:56:34.809Z,922.15
2018-01-24T18:58:06.633Z,922.05
2018-01-24T18:59:38.458Z,922.05
2018-01-24T19:01:10.288Z,922.02
2018-01-24T19:02:42.157Z,922.18
2018-01-24T19:04:13.932Z,922.12
2018-01-24T19:05:45.762Z,922.21